Decoded Metar for YTRE (TAREE AIRPORT in _UNIDENTIFIED) (IATA:TRO) | Meteo·Mobile Aviation Weather
aviador You're here:

YTRE Decoded Metar

TAREE AIRPORT in _UNIDENTIFIED
Report Time2018-12-18 17:00:00
UTC Time2018-12-18 17:34:25
Flight Rules mvfr MVFR
WindCalm
Visibility9999 m
Phenomena:N/A
Clouds:Broken 022 Hf
Ceiling2,200 ft
Temp21°C (ISA +6)
Dew Point21°C (100% RH)
QNH1012 hPa
Density Alt1,109 ft
Elevation39 ft
Report Wrong Elevation
Raw Report
YTRE 181700Z AUTO 00000KT 9999 // BKN022 21/21 Q1012=

Extra information for YTRE:More info

Metar Taf Metar & Taf Last 4 Metars F.Rules Stats Wind Profile Meteogram Temp Stats Airport Information Weather charts Add Link Nearby VenuesMetar ALERT Operation Metar Decoded Social comments